createdAt,value
2018-08-08T00:00:51.934Z,1000.3
2018-08-08T00:01:53.455Z,1000.3
2018-08-08T00:02:54.856Z,1000.3
2018-08-08T00:03:56.258Z,1000.3
2018-08-08T00:04:57.774Z,1000.3
2018-08-08T00:05:59.171Z,1000.3
2018-08-08T00:07:00.862Z,1000.4
2018-08-08T00:08:02.265Z,1000.3
2018-08-08T00:09:03.945Z,1000.4
2018-08-08T00:10:05.353Z,1000.4
2018-08-08T00:11:06.762Z,1000.4
2018-08-08T00:12:08.275Z,1000.4
2018-08-08T00:13:09.679Z,1000.4
2018-08-08T00:14:11.073Z,1000.4
2018-08-08T00:15:12.588Z,1000.4
2018-08-08T00:16:13.992Z,1000.5
2018-08-08T00:17:15.671Z,1000.5
2018-08-08T00:18:17.074Z,1000.5
2018-08-08T00:19:18.760Z,1000.5
2018-08-08T00:20:20.164Z,1000.5
2018-08-08T00:21:21.561Z,1000.5
2018-08-08T00:22:23.079Z,1000.5
2018-08-08T00:23:24.482Z,1000.5
2018-08-08T00:24:25.890Z,1000.5
2018-08-08T00:25:27.401Z,1000.5
2018-08-08T00:26:28.800Z,1000.5
2018-08-08T00:27:30.486Z,1000.4
2018-08-08T00:28:31.887Z,1000.5
2018-08-08T00:29:33.287Z,1000.5
2018-08-08T00:30:34.842Z,1000.5
2018-08-08T00:31:36.244Z,1000.5
2018-08-08T00:32:37.650Z,1000.5
2018-08-08T00:33:39.334Z,1000.5
2018-08-08T00:34:40.734Z,1000.5
2018-08-08T00:35:42.137Z,1000.5
2018-08-08T00:36:43.654Z,1000.5
2018-08-08T00:37:45.058Z,1000.5
2018-08-08T00:38:46.460Z,1000.4
2018-08-08T00:39:47.976Z,1000.4
2018-08-08T00:40:49.376Z,1000.4
2018-08-08T00:41:50.778Z,1000.4
2018-08-08T00:42:52.298Z,1000.4
2018-08-08T00:43:53.700Z,1000.4
2018-08-08T00:44:55.103Z,1000.4
2018-08-08T00:45:56.619Z,1000.3
2018-08-08T00:46:58.023Z,1000.3
2018-08-08T00:47:59.423Z,1000.3
2018-08-08T00:49:02.513Z,1000.2
2018-08-08T00:50:04.197Z,1000.2
2018-08-08T00:51:06.209Z,1000.2
2018-08-08T00:52:07.721Z,1000.1
2018-08-08T00:53:09.121Z,1000.1
2018-08-08T00:54:10.526Z,1000.0
2018-08-08T00:55:12.038Z,1000.0
2018-08-08T00:56:13.440Z,1000.0
2018-08-08T00:57:14.845Z,1000.0
2018-08-08T00:58:16.361Z,1000.0
2018-08-08T00:59:17.764Z,1000.0
2018-08-08T01:00:19.165Z,1000.0
2018-08-08T01:01:20.682Z,1000.1
2018-08-08T01:02:22.084Z,1000.1
2018-08-08T01:03:23.768Z,1000.2
2018-08-08T01:04:25.169Z,1000.2
2018-08-08T01:05:26.575Z,1000.1
2018-08-08T01:06:28.087Z,1000.2
2018-08-08T01:07:29.493Z,1000.1
2018-08-08T01:08:30.917Z,1000.1
2018-08-08T01:09:32.412Z,1000.2
2018-08-08T01:10:33.812Z,1000.2
2018-08-08T01:11:35.216Z,1000.3
2018-08-08T01:12:36.732Z,1000.3
2018-08-08T01:13:38.135Z,1000.4
2018-08-08T01:14:39.545Z,1000.5
2018-08-08T01:15:41.055Z,1000.7
2018-08-08T01:16:42.455Z,1001.0
2018-08-08T01:17:43.935Z,1001.1
2018-08-08T01:18:45.336Z,1001.2
2018-08-08T01:19:47.021Z,1001.1
2018-08-08T01:20:48.421Z,1001.0
2018-08-08T01:21:50.106Z,1000.9
2018-08-08T01:22:51.508Z,1000.9
2018-08-08T01:23:53.191Z,1000.8
2018-08-08T01:24:54.585Z,1000.8
2018-08-08T01:25:56.071Z,1000.9
2018-08-08T01:26:57.476Z,1001.0
2018-08-08T01:27:59.156Z,1001.1
2018-08-08T01:29:00.563Z,1001.0
2018-08-08T01:30:01.992Z,1000.9
2018-08-08T01:31:03.478Z,1001.0
2018-08-08T01:32:04.879Z,1001.0
2018-08-08T01:33:06.279Z,1001.1
2018-08-08T01:34:07.800Z,1001.1
2018-08-08T01:35:09.206Z,1001.1
2018-08-08T01:36:10.606Z,1001.0
2018-08-08T01:37:12.119Z,1001.0
2018-08-08T01:38:13.520Z,1001.0
2018-08-08T01:39:15.002Z,1001.0
2018-08-08T01:40:16.405Z,1000.9
2018-08-08T01:41:18.132Z,1001.0
2018-08-08T01:42:19.530Z,1001.1
2018-08-08T01:43:21.174Z,1001.1
2018-08-08T01:44:22.578Z,1001.1
2018-08-08T01:45:24.266Z,1001.0
2018-08-08T01:46:25.663Z,1001.0
2018-08-08T01:47:27.060Z,1001.0
2018-08-08T01:48:28.580Z,1001.0
2018-08-08T01:49:30.032Z,1001.0
2018-08-08T01:50:31.434Z,1001.0
2018-08-08T01:51:33.107Z,1001.0
2018-08-08T01:52:34.505Z,1001.1
2018-08-08T01:53:35.987Z,1001.1
2018-08-08T01:54:37.405Z,1001.1
2018-08-08T01:55:38.807Z,1001.2
2018-08-08T01:56:40.309Z,1001.1
2018-08-08T01:57:41.712Z,1001.2
2018-08-08T01:58:43.119Z,1001.2
2018-08-08T01:59:44.631Z,1001.2
2018-08-08T02:00:46.031Z,1001.2
2018-08-08T02:01:47.433Z,1001.3
2018-08-08T02:02:48.958Z,1001.3
2018-08-08T02:03:50.363Z,1001.3
2018-08-08T02:04:51.756Z,1001.4
2018-08-08T02:05:53.272Z,1001.6
2018-08-08T02:06:54.671Z,1001.8
2018-08-08T02:07:56.075Z,1001.6
2018-08-08T02:08:57.595Z,1001.6
2018-08-08T02:09:58.994Z,1001.6
2018-08-08T02:11:00.395Z,1001.6
2018-08-08T02:12:01.915Z,1001.6
2018-08-08T02:13:03.322Z,1001.5
2018-08-08T02:14:04.725Z,1001.5
2018-08-08T02:15:06.236Z,1001.4
2018-08-08T02:16:07.643Z,1001.5
2018-08-08T02:17:09.049Z,1001.5
2018-08-08T02:18:10.557Z,1001.5
2018-08-08T02:19:11.960Z,1001.4
2018-08-08T02:20:13.369Z,1001.5
2018-08-08T02:21:14.880Z,1001.5
2018-08-08T02:22:16.280Z,1001.5
2018-08-08T02:23:17.683Z,1001.5
2018-08-08T02:24:19.200Z,1001.5
2018-08-08T02:25:20.603Z,1001.5
2018-08-08T02:26:22.008Z,1001.5
2018-08-08T02:27:23.522Z,1001.5
2018-08-08T02:28:24.920Z,1001.5
2018-08-08T02:29:26.403Z,1001.4
2018-08-08T02:30:27.805Z,1001.3
2018-08-08T02:31:29.284Z,1001.2
2018-08-08T02:32:30.687Z,1001.2
2018-08-08T02:33:32.165Z,1001.3
2018-08-08T02:34:33.570Z,1001.3
2018-08-08T02:35:35.047Z,1001.3
2018-08-08T02:36:36.445Z,1001.3
2018-08-08T02:37:37.846Z,1001.2
2018-08-08T02:38:39.367Z,1001.2
2018-08-08T02:39:40.769Z,1001.2
2018-08-08T02:40:42.170Z,1001.2
2018-08-08T02:41:43.689Z,1001.3
2018-08-08T02:42:45.092Z,1001.3
2018-08-08T02:43:46.570Z,1001.4
2018-08-08T02:44:47.969Z,1001.3
2018-08-08T02:45:49.459Z,1001.3
2018-08-08T02:46:50.853Z,1001.3
2018-08-08T02:47:52.255Z,1001.3
2018-08-08T02:48:53.773Z,1001.3
2018-08-08T02:49:55.169Z,1001.3
2018-08-08T02:50:56.574Z,1001.3
2018-08-08T02:51:58.095Z,1001.3
2018-08-08T02:52:59.497Z,1001.3
2018-08-08T02:54:00.899Z,1001.3
2018-08-08T02:55:02.414Z,1001.4
2018-08-08T02:56:03.815Z,1001.4
2018-08-08T02:57:05.216Z,1001.4
2018-08-08T02:58:06.734Z,1001.3
2018-08-08T02:59:08.135Z,1001.5
2018-08-08T03:00:09.616Z,1001.5
2018-08-08T03:01:11.018Z,1001.5
2018-08-08T03:02:12.419Z,1001.5
2018-08-08T03:03:16.002Z,1001.5
2018-08-08T03:04:20.278Z,1001.5
2018-08-08T03:05:23.983Z,1001.6
2018-08-08T03:06:25.426Z,1001.6
2018-08-08T03:07:26.831Z,1001.6
2018-08-08T03:08:28.336Z,1001.6
2018-08-08T03:09:29.709Z,1001.6
2018-08-08T03:10:31.189Z,1001.6
2018-08-08T03:11:32.590Z,1001.6
2018-08-08T03:12:34.069Z,1001.6
2018-08-08T03:13:35.471Z,1001.7
2018-08-08T03:14:36.949Z,1001.6
2018-08-08T03:15:38.352Z,1001.7
2018-08-08T03:16:39.830Z,1001.7
2018-08-08T03:17:41.232Z,1001.7
2018-08-08T03:18:42.680Z,1001.8
2018-08-08T03:19:44.190Z,1001.8
2018-08-08T03:20:45.552Z,1001.9
2018-08-08T03:21:46.953Z,1001.9
2018-08-08T03:22:50.318Z,1001.8
2018-08-08T03:23:51.719Z,1001.9
2018-08-08T03:24:53.196Z,1001.9
2018-08-08T03:25:54.601Z,1002.0
2018-08-08T03:26:55.999Z,1002.0
2018-08-08T03:27:57.519Z,1002.1
2018-08-08T03:28:58.918Z,1002.1
2018-08-08T03:30:00.324Z,1002.1
2018-08-08T03:31:01.840Z,1002.1
2018-08-08T03:32:03.247Z,1002.1
2018-08-08T03:33:04.649Z,1002.1
2018-08-08T03:34:06.161Z,1002.0
2018-08-08T03:35:07.582Z,1002.0
2018-08-08T03:36:09.247Z,1002.0
2018-08-08T03:37:10.649Z,1002.0
2018-08-08T03:38:12.053Z,1002.1
2018-08-08T03:39:13.569Z,1002.1
2018-08-08T03:40:14.971Z,1002.1
2018-08-08T03:41:16.363Z,1002.1
2018-08-08T03:42:17.903Z,1002.2
2018-08-08T03:43:19.291Z,1002.2
2018-08-08T03:44:20.773Z,1002.2
2018-08-08T03:45:22.177Z,1002.2
2018-08-08T03:46:23.651Z,1002.3
2018-08-08T03:47:25.055Z,1002.3
2018-08-08T03:48:26.549Z,1002.4
2018-08-08T03:49:27.951Z,1002.4
2018-08-08T03:50:29.618Z,1002.5
2018-08-08T03:51:31.021Z,1002.5
2018-08-08T03:52:32.423Z,1002.6
2018-08-08T03:53:33.937Z,1002.6
2018-08-08T03:54:35.338Z,1002.7
2018-08-08T03:55:36.740Z,1002.8
2018-08-08T03:56:38.261Z,1002.9
2018-08-08T03:57:39.709Z,1003.0
2018-08-08T03:58:41.140Z,1003.1
2018-08-08T03:59:42.544Z,1003.2
2018-08-08T04:00:44.040Z,1003.3
2018-08-08T04:01:45.437Z,1003.5
2018-08-08T04:02:46.939Z,1003.7
2018-08-08T04:03:48.313Z,1003.8
2018-08-08T04:04:49.784Z,1003.9
2018-08-08T04:05:51.188Z,1003.8
2018-08-08T04:06:52.666Z,1003.9
2018-08-08T04:07:54.071Z,1003.8
2018-08-08T04:08:55.472Z,1003.8
2018-08-08T04:09:56.989Z,1003.8
2018-08-08T04:10:58.386Z,1003.8
2018-08-08T04:11:59.788Z,1003.8
2018-08-08T04:13:01.308Z,1003.7
2018-08-08T04:14:02.713Z,1003.7
2018-08-08T04:15:04.191Z,1003.7
2018-08-08T04:16:05.632Z,1003.6
2018-08-08T04:17:07.116Z,1003.6
2018-08-08T04:18:08.473Z,1003.5
2018-08-08T04:19:09.949Z,1003.4
2018-08-08T04:20:11.354Z,1003.3
2018-08-08T04:21:12.830Z,1003.2
2018-08-08T04:22:14.244Z,1003.1
2018-08-08T04:23:15.712Z,1003.1
2018-08-08T04:24:17.154Z,1003.1
2018-08-08T04:25:18.592Z,1003.1
2018-08-08T04:26:19.994Z,1003.1
2018-08-08T04:27:21.473Z,1003.2
2018-08-08T04:28:22.875Z,1003.4
2018-08-08T04:29:24.356Z,1003.6
2018-08-08T04:30:25.758Z,1003.9
2018-08-08T04:31:27.234Z,1004.0
2018-08-08T04:32:28.633Z,1004.2
2018-08-08T04:33:30.037Z,1004.2
2018-08-08T04:34:31.562Z,1004.3
2018-08-08T04:35:32.959Z,1004.3
2018-08-08T04:36:34.360Z,1004.3
2018-08-08T04:37:35.829Z,1004.4
2018-08-08T04:38:37.232Z,1004.5
2018-08-08T04:39:38.712Z,1004.6
2018-08-08T04:40:40.112Z,1004.7
2018-08-08T04:41:41.594Z,1004.7
2018-08-08T04:42:42.997Z,1004.6
2018-08-08T04:43:44.398Z,1004.6
2018-08-08T04:44:45.915Z,1004.5
2018-08-08T04:45:47.317Z,1004.5
2018-08-08T04:46:48.717Z,1004.5
2018-08-08T04:47:50.242Z,1004.5
2018-08-08T04:48:51.643Z,1004.5
2018-08-08T04:49:53.122Z,1004.5
2018-08-08T04:50:54.541Z,1004.5
2018-08-08T04:51:55.997Z,1004.5
2018-08-08T04:52:57.401Z,1004.5
2018-08-08T04:53:58.802Z,1004.6
2018-08-08T04:55:00.321Z,1004.7
2018-08-08T04:56:01.733Z,1004.7
2018-08-08T04:57:03.124Z,1004.7
2018-08-08T04:58:04.642Z,1004.8
2018-08-08T04:59:06.043Z,1004.7
2018-08-08T05:00:07.466Z,1004.8
2018-08-08T05:01:08.963Z,1004.8
2018-08-08T05:02:10.365Z,1004.8
2018-08-08T05:03:11.770Z,1004.8
2018-08-08T05:04:13.286Z,1004.9
2018-08-08T05:05:14.693Z,1004.9
2018-08-08T05:06:16.096Z,1004.9
2018-08-08T05:07:17.606Z,1004.9
2018-08-08T05:08:19.009Z,1005.0
2018-08-08T05:09:20.411Z,1004.9
2018-08-08T05:10:21.928Z,1005.0
2018-08-08T05:11:23.331Z,1005.0
2018-08-08T05:12:24.808Z,1005.0
2018-08-08T05:13:26.210Z,1005.1
2018-08-08T05:14:27.694Z,1005.1
2018-08-08T05:15:29.093Z,1005.1
2018-08-08T05:16:30.573Z,1005.1
2018-08-08T05:17:31.977Z,1005.1
2018-08-08T05:18:33.455Z,1005.1
2018-08-08T05:19:34.860Z,1005.2
2018-08-08T05:20:36.335Z,1005.2
2018-08-08T05:21:37.741Z,1005.2
2018-08-08T05:22:39.216Z,1005.2
2018-08-08T05:23:40.619Z,1005.1
2018-08-08T05:24:42.032Z,1005.2
2018-08-08T05:25:43.539Z,1005.2
2018-08-08T05:26:44.946Z,1005.2
2018-08-08T05:27:46.372Z,1005.2
2018-08-08T05:28:47.862Z,1005.2
2018-08-08T05:29:49.266Z,1005.3
2018-08-08T05:30:50.673Z,1005.3
2018-08-08T05:31:52.180Z,1005.2
2018-08-08T05:32:53.593Z,1005.2
2018-08-08T05:33:55.001Z,1005.2
2018-08-08T05:34:56.504Z,1005.2
2018-08-08T05:35:57.909Z,1005.2
2018-08-08T05:36:59.315Z,1005.1
2018-08-08T05:38:00.824Z,1005.1
2018-08-08T05:39:02.234Z,1005.0
2018-08-08T05:40:03.637Z,1005.0
2018-08-08T05:41:05.147Z,1005.0
2018-08-08T05:42:06.551Z,1005.0
2018-08-08T05:43:07.953Z,1004.8
2018-08-08T05:44:09.469Z,1004.8
2018-08-08T05:45:10.871Z,1004.8
2018-08-08T05:46:12.279Z,1004.8
2018-08-08T05:47:13.790Z,1004.7
2018-08-08T05:48:15.199Z,1004.7
2018-08-08T05:49:16.656Z,1004.7
2018-08-08T05:50:18.150Z,1004.8
2018-08-08T05:51:19.554Z,1004.7
2018-08-08T05:52:20.959Z,1004.7
2018-08-08T05:53:22.471Z,1004.7
2018-08-08T05:54:23.879Z,1004.6
2018-08-08T05:55:25.290Z,1004.5
2018-08-08T05:56:26.792Z,1004.4
2018-08-08T05:57:28.195Z,1004.5
2018-08-08T05:58:29.598Z,1004.4
2018-08-08T05:59:31.114Z,1004.4
2018-08-08T06:00:32.520Z,1004.3
2018-08-08T06:01:34.038Z,1004.3
2018-08-08T06:02:35.408Z,1004.3
2018-08-08T06:03:36.812Z,1004.2
2018-08-08T06:04:38.316Z,1004.2
2018-08-08T06:05:39.722Z,1004.1
2018-08-08T06:06:41.125Z,1004.1
2018-08-08T06:07:42.638Z,1004.1
2018-08-08T06:08:44.041Z,1004.0
2018-08-08T06:09:45.447Z,1004.0
2018-08-08T06:10:46.994Z,1003.9
2018-08-08T06:12:47.701Z,1003.9
2018-08-08T06:13:49.101Z,1003.7
2018-08-08T06:14:50.672Z,1003.7
2018-08-08T06:15:52.080Z,1003.7
2018-08-08T06:16:53.554Z,1003.8
2018-08-08T06:17:54.955Z,1003.8
2018-08-08T06:18:56.436Z,1003.9
2018-08-08T06:19:57.852Z,1004.0
2018-08-08T06:20:59.315Z,1004.0
2018-08-08T06:22:00.715Z,1004.1
2018-08-08T06:23:02.196Z,1004.2
2018-08-08T06:24:03.604Z,1004.3
2018-08-08T06:25:05.078Z,1004.4
2018-08-08T06:26:06.487Z,1004.4
2018-08-08T06:27:07.958Z,1004.4
2018-08-08T06:28:09.360Z,1004.3
2018-08-08T06:29:10.763Z,1004.3
2018-08-08T06:30:12.299Z,1004.3
2018-08-08T06:31:13.710Z,1004.2
2018-08-08T06:32:15.183Z,1004.1
2018-08-08T06:33:16.807Z,1004.1
2018-08-08T06:34:18.215Z,1004.1
2018-08-08T06:35:19.619Z,1004.1
2018-08-08T06:36:21.129Z,1004.1
2018-08-08T06:37:22.532Z,1004.2
2018-08-08T06:38:23.937Z,1004.2
2018-08-08T06:39:25.454Z,1004.1
2018-08-08T06:40:26.859Z,1004.1
2018-08-08T06:41:28.265Z,1004.2
2018-08-08T06:42:29.668Z,1004.2
2018-08-08T06:43:31.129Z,1004.2
2018-08-08T06:44:32.656Z,1004.3
2018-08-08T06:45:34.062Z,1004.4
2018-08-08T06:46:35.464Z,1004.4
2018-08-08T06:47:36.973Z,1004.4
2018-08-08T06:48:38.381Z,1004.4
2018-08-08T06:49:39.786Z,1004.3
2018-08-08T06:50:41.295Z,1004.4
2018-08-08T06:51:42.701Z,1004.4
2018-08-08T06:52:44.178Z,1004.3
2018-08-08T06:53:45.580Z,1004.3
2018-08-08T06:54:47.742Z,1004.3
2018-08-08T06:55:49.145Z,1004.3
2018-08-08T06:56:50.759Z,1004.3
2018-08-08T06:57:52.192Z,1004.3
2018-08-08T06:58:53.636Z,1004.3
2018-08-08T06:59:55.087Z,1004.3
2018-08-08T07:00:56.520Z,1004.3
2018-08-08T07:01:57.922Z,1004.2
2018-08-08T07:02:59.399Z,1004.3
2018-08-08T07:04:00.807Z,1004.3
2018-08-08T07:05:02.279Z,1004.3
2018-08-08T07:06:03.689Z,1004.3
2018-08-08T07:07:05.161Z,1004.3
2018-08-08T07:08:06.569Z,1004.3
2018-08-08T07:09:08.041Z,1004.2
2018-08-08T07:10:09.449Z,1004.2
2018-08-08T07:11:10.922Z,1004.2
2018-08-08T07:12:12.327Z,1004.1
2018-08-08T07:13:13.804Z,1004.1
2018-08-08T07:14:15.259Z,1004.1
2018-08-08T07:15:16.682Z,1004.1
2018-08-08T07:16:18.090Z,1004.0
2018-08-08T07:17:19.568Z,1004.1
2018-08-08T07:18:20.968Z,1004.0
2018-08-08T07:19:22.498Z,1004.1
2018-08-08T07:20:23.903Z,1004.1
2018-08-08T07:21:25.309Z,1004.1
2018-08-08T07:22:26.767Z,1004.1
2018-08-08T07:23:28.173Z,1004.1
2018-08-08T07:24:29.583Z,1004.0
2018-08-08T07:25:31.094Z,1004.0
2018-08-08T07:26:32.495Z,1004.0
2018-08-08T07:27:33.969Z,1004.0
2018-08-08T07:28:35.377Z,1004.1
2018-08-08T07:29:36.786Z,1004.0
2018-08-08T07:30:38.295Z,1004.1
2018-08-08T07:31:39.706Z,1004.0
2018-08-08T07:32:41.109Z,1004.1
2018-08-08T07:33:42.613Z,1004.1
2018-08-08T07:34:44.016Z,1004.1
2018-08-08T07:35:45.422Z,1004.2
2018-08-08T07:36:46.932Z,1004.2
2018-08-08T07:37:48.344Z,1004.2
2018-08-08T07:38:49.750Z,1004.2
2018-08-08T07:39:51.215Z,1004.2
2018-08-08T07:40:52.576Z,1004.3
2018-08-08T07:41:54.134Z,1004.2
2018-08-08T07:42:55.545Z,1004.3
2018-08-08T07:43:56.990Z,1004.3
2018-08-08T07:44:58.451Z,1004.3
2018-08-08T07:45:59.897Z,1004.4
2018-08-08T07:47:01.340Z,1004.4
2018-08-08T07:48:02.740Z,1004.4
2018-08-08T07:49:04.230Z,1004.4
2018-08-08T07:50:05.635Z,1004.4
2018-08-08T07:51:07.100Z,1004.4
2018-08-08T07:52:08.515Z,1004.4
2018-08-08T07:53:09.981Z,1004.5
2018-08-08T07:54:11.391Z,1004.4
2018-08-08T07:55:12.886Z,1004.5
2018-08-08T07:56:14.276Z,1004.5
2018-08-08T07:57:15.678Z,1004.5
2018-08-08T07:58:17.263Z,1004.6
2018-08-08T07:59:18.566Z,1004.5
2018-08-08T08:00:19.976Z,1004.5
2018-08-08T08:01:21.485Z,1004.5
2018-08-08T08:02:23.294Z,1004.5
2018-08-08T08:03:24.702Z,1004.5
2018-08-08T08:04:26.217Z,1004.5
2018-08-08T08:05:27.621Z,1004.5
2018-08-08T08:06:29.030Z,1004.6
2018-08-08T08:07:30.534Z,1004.6
2018-08-08T08:08:31.943Z,1004.6
2018-08-08T08:09:33.349Z,1004.7
2018-08-08T08:10:34.855Z,1004.6
2018-08-08T08:11:36.262Z,1004.7
2018-08-08T08:12:37.670Z,1004.6
2018-08-08T08:13:39.178Z,1004.6
2018-08-08T08:14:40.591Z,1004.6
2018-08-08T08:15:41.994Z,1004.5
2018-08-08T08:16:43.499Z,1004.5
2018-08-08T08:17:44.907Z,1004.6
2018-08-08T08:18:46.315Z,1004.6
2018-08-08T08:19:47.820Z,1004.5
2018-08-08T08:20:49.231Z,1004.6
2018-08-08T08:21:50.640Z,1004.6
2018-08-08T08:22:52.162Z,1004.6
2018-08-08T08:23:53.571Z,1004.6
2018-08-08T08:24:55.043Z,1004.6
2018-08-08T08:25:56.457Z,1004.6
2018-08-08T08:26:57.865Z,1004.7
2018-08-08T08:27:59.412Z,1004.7
2018-08-08T08:29:00.785Z,1004.7
2018-08-08T08:30:02.191Z,1004.7
2018-08-08T08:31:03.685Z,1004.8
2018-08-08T08:32:05.117Z,1004.8
2018-08-08T08:33:06.566Z,1004.8
2018-08-08T08:34:08.325Z,1004.8
2018-08-08T08:35:49.421Z,1004.9
2018-08-08T08:36:50.830Z,1004.9
2018-08-08T08:38:12.570Z,1004.9
2018-08-08T08:39:13.972Z,1004.9
2018-08-08T08:40:15.422Z,1005.0
2018-08-08T08:41:16.827Z,1005.0
2018-08-08T08:42:18.233Z,1005.0
2018-08-08T08:43:19.740Z,1005.0
2018-08-08T08:44:21.148Z,1005.1
2018-08-08T08:45:22.556Z,1005.0
2018-08-08T08:46:24.064Z,1005.0
2018-08-08T08:47:25.467Z,1005.1
2018-08-08T08:48:26.865Z,1005.1
2018-08-08T08:49:28.384Z,1005.1
2018-08-08T08:50:29.791Z,1005.0
2018-08-08T08:51:31.191Z,1005.1
2018-08-08T08:52:32.706Z,1005.0
2018-08-08T08:53:34.113Z,1005.0
2018-08-08T08:54:35.585Z,1005.1
2018-08-08T08:55:36.989Z,1005.1
2018-08-08T08:56:38.469Z,1005.1
2018-08-08T08:57:39.875Z,1005.1
2018-08-08T08:58:41.349Z,1005.1
2018-08-08T08:59:42.754Z,1005.1
2018-08-08T09:00:44.227Z,1005.1
2018-08-08T09:01:45.651Z,1005.1
2018-08-08T09:02:47.056Z,1005.1
2018-08-08T09:03:48.550Z,1005.1
2018-08-08T09:04:49.958Z,1005.1
2018-08-08T09:05:51.365Z,1005.2
2018-08-08T09:06:52.872Z,1005.1
2018-08-08T09:07:54.287Z,1005.2
2018-08-08T09:08:55.692Z,1005.1
2018-08-08T09:09:57.195Z,1005.2
2018-08-08T09:10:58.596Z,1005.2
2018-08-08T09:12:00.204Z,1005.2
2018-08-08T09:13:01.737Z,1005.2
2018-08-08T09:14:03.146Z,1005.2
2018-08-08T09:15:04.645Z,1005.2
2018-08-08T09:16:06.018Z,1005.2
2018-08-08T09:17:07.483Z,1005.2
2018-08-08T09:18:08.916Z,1005.3
2018-08-08T09:19:10.362Z,1005.2
2018-08-08T09:20:11.768Z,1005.3
2018-08-08T09:21:13.173Z,1005.3
2018-08-08T09:22:14.690Z,1005.3
2018-08-08T09:23:16.099Z,1005.3
2018-08-08T09:24:17.540Z,1005.3
2018-08-08T09:25:19.003Z,1005.4
2018-08-08T09:26:20.412Z,1005.5
2018-08-08T09:27:21.817Z,1005.5
2018-08-08T09:28:23.338Z,1005.5
2018-08-08T09:29:24.727Z,1005.5
2018-08-08T09:30:26.194Z,1005.5
2018-08-08T09:31:27.544Z,1005.6
2018-08-08T09:32:28.946Z,1005.6
2018-08-08T09:33:30.352Z,1005.7
2018-08-08T09:34:32.014Z,1005.7
2018-08-08T09:35:35.081Z,1005.7
2018-08-08T09:36:36.691Z,1005.7
2018-08-08T09:37:38.122Z,1005.7
2018-08-08T09:38:39.570Z,1005.7
2018-08-08T09:39:40.976Z,1005.7
2018-08-08T09:40:42.452Z,1005.7
2018-08-08T09:41:43.978Z,1005.7
2018-08-08T09:42:45.539Z,1005.7
2018-08-08T09:43:46.944Z,1005.7
2018-08-08T09:44:48.416Z,1005.8
2018-08-08T09:45:49.821Z,1005.7
2018-08-08T09:46:51.228Z,1005.8
2018-08-08T09:47:52.772Z,1005.8
2018-08-08T09:48:54.184Z,1005.8
2018-08-08T09:49:55.586Z,1005.8
2018-08-08T09:50:57.058Z,1005.8
2018-08-08T09:51:58.460Z,1005.8
2018-08-08T09:52:59.866Z,1005.9
2018-08-08T09:54:01.381Z,1005.9
2018-08-08T09:55:02.809Z,1005.9
2018-08-08T09:56:04.223Z,1005.9
2018-08-08T09:57:05.703Z,1005.9
2018-08-08T09:58:07.108Z,1006.0
2018-08-08T09:59:08.591Z,1006.0
2018-08-08T10:00:09.992Z,1006.0
2018-08-08T10:01:11.466Z,1006.0
2018-08-08T10:02:12.876Z,1006.0
2018-08-08T10:03:14.283Z,1006.0
2018-08-08T10:04:15.785Z,1006.1
2018-08-08T10:05:17.189Z,1006.0
2018-08-08T10:06:18.595Z,1006.0
2018-08-08T10:07:20.107Z,1006.1
2018-08-08T10:08:21.514Z,1006.1
2018-08-08T10:09:22.989Z,1006.1
2018-08-08T10:10:24.399Z,1006.1
2018-08-08T10:11:25.874Z,1006.2
2018-08-08T10:12:27.278Z,1006.2
2018-08-08T10:13:28.707Z,1006.2
2018-08-08T10:14:30.190Z,1006.1
2018-08-08T10:15:31.598Z,1006.2
2018-08-08T10:16:33.005Z,1006.2
2018-08-08T10:17:34.519Z,1006.2
2018-08-08T10:18:35.928Z,1006.2
2018-08-08T10:19:37.397Z,1006.2
2018-08-08T10:20:38.805Z,1006.2
2018-08-08T10:21:40.273Z,1006.2
2018-08-08T10:22:41.679Z,1006.2
2018-08-08T10:23:43.088Z,1006.5
2018-08-08T10:24:44.699Z,1006.3
2018-08-08T10:25:46.206Z,1006.2
2018-08-08T10:26:47.614Z,1006.4
2018-08-08T10:27:49.225Z,1006.4
2018-08-08T10:28:50.635Z,1006.3
2018-08-08T10:29:52.042Z,1006.3
2018-08-08T10:30:53.751Z,1006.3
2018-08-08T10:31:55.162Z,1006.4
2018-08-08T10:32:56.591Z,1006.3
2018-08-08T10:33:58.296Z,1006.3
2018-08-08T10:34:59.682Z,1006.3
2018-08-08T10:36:01.364Z,1006.3
2018-08-08T10:37:02.782Z,1006.3
2018-08-08T10:38:04.451Z,1006.3
2018-08-08T10:39:05.860Z,1006.3
2018-08-08T10:40:07.539Z,1006.3
2018-08-08T10:41:08.998Z,1006.3
2018-08-08T10:42:10.346Z,1006.3
2018-08-08T10:43:12.062Z,1006.3
2018-08-08T10:44:13.470Z,1006.3
2018-08-08T10:45:14.878Z,1006.5
2018-08-08T10:46:16.588Z,1006.4
2018-08-08T10:47:17.998Z,1006.4
2018-08-08T10:48:19.414Z,1006.3
2018-08-08T10:49:21.113Z,1006.4
2018-08-08T10:50:22.518Z,1006.3
2018-08-08T10:51:24.199Z,1006.4
2018-08-08T10:52:25.612Z,1006.5
2018-08-08T10:53:27.026Z,1006.5
2018-08-08T10:54:28.725Z,1006.3
2018-08-08T10:55:30.169Z,1006.4
2018-08-08T10:56:31.536Z,1006.3
2018-08-08T10:57:33.252Z,1006.3
2018-08-08T10:58:34.681Z,1006.3
2018-08-08T10:59:36.368Z,1006.4
2018-08-08T11:00:37.746Z,1006.4
2018-08-08T11:01:39.423Z,1006.4
2018-08-08T11:02:40.825Z,1006.3
2018-08-08T11:03:42.230Z,1006.4
2018-08-08T11:04:43.634Z,1006.5
2018-08-08T11:05:45.113Z,1006.5
2018-08-08T11:06:46.625Z,1006.4
2018-08-08T11:07:48.034Z,1006.4
2018-08-08T11:08:49.441Z,1006.5
2018-08-08T11:09:51.149Z,1006.5
2018-08-08T11:10:52.554Z,1006.5
2018-08-08T11:11:53.962Z,1006.5
2018-08-08T11:12:55.675Z,1006.5
2018-08-08T11:13:57.086Z,1006.6
2018-08-08T11:14:58.483Z,1006.5
2018-08-08T11:16:00.201Z,1006.5
2018-08-08T11:17:01.617Z,1006.5
2018-08-08T11:18:03.009Z,1006.5
2018-08-08T11:19:04.727Z,1006.6
2018-08-08T11:20:06.135Z,1006.7
2018-08-08T11:21:07.539Z,1006.6
2018-08-08T11:22:09.255Z,1006.7
2018-08-08T11:23:10.661Z,1006.6
2018-08-08T11:24:12.064Z,1006.6
2018-08-08T11:25:13.781Z,1006.6
2018-08-08T11:26:15.186Z,1006.6
2018-08-08T11:27:16.869Z,1006.7
2018-08-08T11:28:18.274Z,1006.7
2018-08-08T11:29:19.950Z,1006.6
2018-08-08T11:30:21.388Z,1006.7
2018-08-08T11:31:23.038Z,1006.8
2018-08-08T11:32:24.445Z,1006.7
2018-08-08T11:33:25.853Z,1006.7
2018-08-08T11:34:27.566Z,1006.7
2018-08-08T11:35:28.973Z,1006.7
2018-08-08T11:36:30.380Z,1006.7
2018-08-08T11:37:32.092Z,1006.7
2018-08-08T11:38:33.501Z,1006.8
2018-08-08T11:39:35.179Z,1006.7
2018-08-08T11:40:36.587Z,1006.7
2018-08-08T11:41:38.163Z,1006.6
2018-08-08T11:42:39.570Z,1006.7
2018-08-08T11:43:40.977Z,1006.7
2018-08-08T11:44:42.584Z,1006.7
2018-08-08T11:45:44.010Z,1006.7
2018-08-08T11:46:45.430Z,1006.7
2018-08-08T11:47:47.110Z,1006.7
2018-08-08T11:48:48.516Z,1006.8
2018-08-08T11:49:50.208Z,1006.9
2018-08-08T11:50:51.610Z,1007.0
2018-08-08T11:51:53.282Z,1007.0
2018-08-08T11:52:54.689Z,1006.8
2018-08-08T11:53:56.096Z,1006.9
2018-08-08T11:54:57.917Z,1007.0
2018-08-08T11:55:59.325Z,1006.9
2018-08-08T11:57:00.733Z,1006.9
2018-08-08T11:58:02.334Z,1006.9
2018-08-08T11:59:03.799Z,1007.0
2018-08-08T12:00:05.149Z,1007.0
2018-08-08T12:01:06.866Z,1007.0
2018-08-08T12:02:08.273Z,1007.0
2018-08-08T12:03:09.683Z,1007.1
2018-08-08T12:04:11.389Z,1007.1
2018-08-08T12:05:12.824Z,1007.1
2018-08-08T12:06:14.239Z,1007.0
2018-08-08T12:07:15.918Z,1007.1
2018-08-08T12:08:17.319Z,1007.1
2018-08-08T12:09:18.729Z,1007.0
2018-08-08T12:10:20.437Z,1007.1
2018-08-08T12:11:21.848Z,1007.0
2018-08-08T12:12:23.519Z,1007.1
2018-08-08T12:13:24.931Z,1007.1
2018-08-08T12:14:26.609Z,1007.1
2018-08-08T12:15:28.043Z,1007.1
2018-08-08T12:16:29.693Z,1007.0
2018-08-08T12:17:31.110Z,1007.1
2018-08-08T12:18:32.895Z,1007.1
2018-08-08T12:19:34.303Z,1007.1
2018-08-08T12:20:35.713Z,1007.1
2018-08-08T12:21:37.308Z,1007.1
2018-08-08T12:22:38.746Z,1007.1
2018-08-08T12:23:40.123Z,1007.1
2018-08-08T12:24:41.837Z,1007.1
2018-08-08T12:25:43.308Z,1007.2
2018-08-08T12:26:44.655Z,1007.2
2018-08-08T12:27:46.354Z,1007.2
2018-08-08T12:28:47.815Z,1007.2
2018-08-08T12:29:49.170Z,1007.3
2018-08-08T12:30:50.884Z,1007.3
2018-08-08T12:31:52.286Z,1007.3
2018-08-08T12:32:53.696Z,1007.2
2018-08-08T12:33:55.413Z,1007.2
2018-08-08T12:34:56.822Z,1007.3
2018-08-08T12:35:58.493Z,1007.3
2018-08-08T12:36:59.917Z,1007.4
2018-08-08T12:38:01.611Z,1007.3
2018-08-08T12:39:03.011Z,1007.3
2018-08-08T12:40:04.668Z,1007.4
2018-08-08T12:41:06.071Z,1007.3
2018-08-08T12:42:07.751Z,1007.3
2018-08-08T12:43:09.157Z,1007.3
2018-08-08T12:44:10.837Z,1007.3
2018-08-08T12:45:12.247Z,1007.3
2018-08-08T12:46:14.023Z,1007.4
2018-08-08T12:47:15.325Z,1007.4
2018-08-08T12:48:17.010Z,1007.4
2018-08-08T12:49:18.416Z,1007.4